sensor_id;sensor_type;location;lat;lon;timestamp;temperature;humidity
13896;DHT22;7018;50.838;4.226;2022-09-09T00:03:54;15.00;99.90
13896;DHT22;7018;50.838;4.226;2022-09-09T00:06:55;15.10;99.90
13896;DHT22;7018;50.838;4.226;2022-09-09T00:09:28;15.10;99.90
13896;DHT22;7018;50.838;4.226;2022-09-09T00:12:04;15.10;99.90
13896;DHT22;7018;50.838;4.226;2022-09-09T00:14:54;15.10;99.90
13896;DHT22;7018;50.838;4.226;2022-09-09T00:20:13;15.10;99.90
13896;DHT22;7018;50.838;4.226;2022-09-09T00:25:51;15.00;99.90
13896;DHT22;7018;50.838;4.226;2022-09-09T00:28:22;15.00;99.90
13896;DHT22;7018;50.838;4.226;2022-09-09T00:30:51;15.00;99.90
13896;DHT22;7018;50.838;4.226;2022-09-09T00:33:23;15.00;99.90
13896;DHT22;7018;50.838;4.226;2022-09-09T00:35:54;15.00;99.90
13896;DHT22;7018;50.838;4.226;2022-09-09T00:38:32;15.00;99.90
13896;DHT22;7018;50.838;4.226;2022-09-09T00:41:18;15.00;99.90
13896;DHT22;7018;50.838;4.226;2022-09-09T00:43:57;14.90;99.90
13896;DHT22;7018;50.838;4.226;2022-09-09T00:47:04;14.90;99.90
13896;DHT22;7018;50.838;4.226;2022-09-09T00:52:39;14.90;99.90
13896;DHT22;7018;50.838;4.226;2022-09-09T00:55:44;14.90;99.90
13896;DHT22;7018;50.838;4.226;2022-09-09T00:58:12;15.00;99.90
13896;DHT22;7018;50.838;4.226;2022-09-09T01:01:00;15.00;99.90
13896;DHT22;7018;50.838;4.226;2022-09-09T01:03:54;14.90;99.90
13896;DHT22;7018;50.838;4.226;2022-09-09T01:06:30;14.80;99.90
13896;DHT22;7018;50.838;4.226;2022-09-09T01:12:17;14.90;99.90
13896;DHT22;7018;50.838;4.226;2022-09-09T01:14:49;14.90;99.90
13896;DHT22;7018;50.838;4.226;2022-09-09T01:17:26;14.90;99.90
13896;DHT22;7018;50.838;4.226;2022-09-09T01:19:58;14.90;99.90
13896;DHT22;7018;50.838;4.226;2022-09-09T01:22:35;15.00;99.90
13896;DHT22;7018;50.838;4.226;2022-09-09T01:27:37;14.90;99.90
13896;DHT22;7018;50.838;4.226;2022-09-09T01:30:14;14.90;99.90
13896;DHT22;7018;50.838;4.226;2022-09-09T01:32:48;14.90;99.90
13896;DHT22;7018;50.838;4.226;2022-09-09T01:37:54;14.90;99.90
13896;DHT22;7018;50.838;4.226;2022-09-09T01:40:22;14.80;99.90
13896;DHT22;7018;50.838;4.226;2022-09-09T01:42:49;14.90;99.90
13896;DHT22;7018;50.838;4.226;2022-09-09T01:45:17;14.80;99.90
13896;DHT22;7018;50.838;4.226;2022-09-09T01:47:45;14.70;99.90
13896;DHT22;7018;50.838;4.226;2022-09-09T01:50:15;14.70;99.90
13896;DHT22;7018;50.838;4.226;2022-09-09T01:52:44;14.80;99.90
13896;DHT22;7018;50.838;4.226;2022-09-09T01:55:13;14.70;99.90
13896;DHT22;7018;50.838;4.226;2022-09-09T01:58:25;14.70;99.90
13896;DHT22;7018;50.838;4.226;2022-09-09T02:01:09;14.80;99.90
13896;DHT22;7018;50.838;4.226;2022-09-09T02:03:44;14.70;99.90
13896;DHT22;7018;50.838;4.226;2022-09-09T02:06:36;14.70;99.90
13896;DHT22;7018;50.838;4.226;2022-09-09T02:09:10;14.70;99.90
13896;DHT22;7018;50.838;4.226;2022-09-09T02:11:40;14.70;99.90
13896;DHT22;7018;50.838;4.226;2022-09-09T02:14:13;14.80;99.90
13896;DHT22;7018;50.838;4.226;2022-09-09T02:16:50;14.90;99.90
13896;DHT22;7018;50.838;4.226;2022-09-09T02:19:29;14.90;99.90
13896;DHT22;7018;50.838;4.226;2022-09-09T02:22:00;14.90;99.90
13896;DHT22;7018;50.838;4.226;2022-09-09T02:24:31;14.90;99.90
13896;DHT22;7018;50.838;4.226;2022-09-09T02:27:01;15.00;99.90
13896;DHT22;7018;50.838;4.226;2022-09-09T02:29:34;15.00;99.90
13896;DHT22;7018;50.838;4.226;2022-09-09T02:32:05;15.00;99.90
13896;DHT22;7018;50.838;4.226;2022-09-09T02:34:36;15.10;99.90
13896;DHT22;7018;50.838;4.226;2022-09-09T02:37:07;15.00;99.90
13896;DHT22;7018;50.838;4.226;2022-09-09T02:39:34;15.10;99.90
13896;DHT22;7018;50.838;4.226;2022-09-09T02:42:03;15.10;99.90
13896;DHT22;7018;50.838;4.226;2022-09-09T02:44:30;15.10;99.90
13896;DHT22;7018;50.838;4.226;2022-09-09T02:53:06;14.90;99.90
13896;DHT22;7018;50.838;4.226;2022-09-09T02:57:50;15.00;99.90
13896;DHT22;7018;50.838;4.226;2022-09-09T03:00:23;15.10;99.90
13896;DHT22;7018;50.838;4.226;2022-09-09T03:02:52;15.10;99.90
13896;DHT22;7018;50.838;4.226;2022-09-09T03:05:20;15.00;99.90
13896;DHT22;7018;50.838;4.226;2022-09-09T03:07:47;15.10;99.90
13896;DHT22;7018;50.838;4.226;2022-09-09T03:10:16;15.10;99.90
13896;DHT22;7018;50.838;4.226;2022-09-09T03:12:44;15.10;99.90
13896;DHT22;7018;50.838;4.226;2022-09-09T03:15:11;15.00;99.90
13896;DHT22;7018;50.838;4.226;2022-09-09T03:17:38;15.00;99.90
13896;DHT22;7018;50.838;4.226;2022-09-09T03:20:05;15.00;99.90
13896;DHT22;7018;50.838;4.226;2022-09-09T03:22:32;14.90;99.90
13896;DHT22;7018;50.838;4.226;2022-09-09T03:25:00;14.90;99.90
13896;DHT22;7018;50.838;4.226;2022-09-09T03:27:27;15.00;99.90
13896;DHT22;7018;50.838;4.226;2022-09-09T03:29:54;15.00;99.90
13896;DHT22;7018;50.838;4.226;2022-09-09T03:32:21;15.00;99.90
13896;DHT22;7018;50.838;4.226;2022-09-09T03:34:52;15.00;99.90
13896;DHT22;7018;50.838;4.226;2022-09-09T03:37:20;15.10;99.90
13896;DHT22;7018;50.838;4.226;2022-09-09T03:39:47;15.20;99.90
13896;DHT22;7018;50.838;4.226;2022-09-09T03:42:15;15.20;99.90
13896;DHT22;7018;50.838;4.226;2022-09-09T03:44:46;15.30;99.90
13896;DHT22;7018;50.838;4.226;2022-09-09T03:47:20;15.40;99.90
13896;DHT22;7018;50.838;4.226;2022-09-09T03:49:48;15.40;99.90
13896;DHT22;7018;50.838;4.226;2022-09-09T03:52:15;15.40;99.90
13896;DHT22;7018;50.838;4.226;2022-09-09T03:54:45;15.40;99.90
13896;DHT22;7018;50.838;4.226;2022-09-09T03:57:12;15.40;99.90
13896;DHT22;7018;50.838;4.226;2022-09-09T03:59:40;15.40;99.90
13896;DHT22;7018;50.838;4.226;2022-09-09T04:02:07;15.40;99.90
13896;DHT22;7018;50.838;4.226;2022-09-09T04:04:34;15.40;99.90
13896;DHT22;7018;50.838;4.226;2022-09-09T04:07:01;15.50;99.90
13896;DHT22;7018;50.838;4.226;2022-09-09T04:09:28;15.50;99.90
13896;DHT22;7018;50.838;4.226;2022-09-09T04:11:55;15.50;99.90
13896;DHT22;7018;50.838;4.226;2022-09-09T04:14:22;15.50;99.90
13896;DHT22;7018;50.838;4.226;2022-09-09T04:16:49;15.40;99.90
13896;DHT22;7018;50.838;4.226;2022-09-09T04:19:16;15.40;99.90
13896;DHT22;7018;50.838;4.226;2022-09-09T04:21:43;15.30;99.90
13896;DHT22;7018;50.838;4.226;2022-09-09T04:24:11;15.30;99.90
13896;DHT22;7018;50.838;4.226;2022-09-09T04:26:38;15.20;99.90
13896;DHT22;7018;50.838;4.226;2022-09-09T04:29:05;15.20;99.90
13896;DHT22;7018;50.838;4.226;2022-09-09T04:31:34;15.10;99.90
13896;DHT22;7018;50.838;4.226;2022-09-09T04:34:01;15.10;99.90
13896;DHT22;7018;50.838;4.226;2022-09-09T04:36:32;15.10;99.90
13896;DHT22;7018;50.838;4.226;2022-09-09T04:38:59;15.10;99.90
13896;DHT22;7018;50.838;4.226;2022-09-09T04:41:28;15.10;99.90
13896;DHT22;7018;50.838;4.226;2022-09-09T04:43:58;15.10;99.90
13896;DHT22;7018;50.838;4.226;2022-09-09T04:46:27;15.20;99.90
13896;DHT22;7018;50.838;4.226;2022-09-09T04:48:54;15.20;99.90
13896;DHT22;7018;50.838;4.226;2022-09-09T04:51:22;15.20;99.90
13896;DHT22;7018;50.838;4.226;2022-09-09T04:53:49;15.20;99.90
13896;DHT22;7018;50.838;4.226;2022-09-09T04:56:18;15.20;99.90
13896;DHT22;7018;50.838;4.226;2022-09-09T04:58:45;15.20;99.90
13896;DHT22;7018;50.838;4.226;2022-09-09T05:01:17;15.20;99.90
13896;DHT22;7018;50.838;4.226;2022-09-09T05:03:46;15.20;99.90
13896;DHT22;7018;50.838;4.226;2022-09-09T05:06:17;15.30;99.90
13896;DHT22;7018;50.838;4.226;2022-09-09T05:08:44;15.30;99.90
13896;DHT22;7018;50.838;4.226;2022-09-09T05:11:23;15.30;99.90
13896;DHT22;7018;50.838;4.226;2022-09-09T05:13:51;15.30;99.90
13896;DHT22;7018;50.838;4.226;2022-09-09T05:16:19;15.30;99.90
13896;DHT22;7018;50.838;4.226;2022-09-09T05:18:46;15.30;99.90
13896;DHT22;7018;50.838;4.226;2022-09-09T05:21:15;15.40;99.90
13896;DHT22;7018;50.838;4.226;2022-09-09T05:23:42;15.40;99.90
13896;DHT22;7018;50.838;4.226;2022-09-09T05:26:13;15.40;99.90
13896;DHT22;7018;50.838;4.226;2022-09-09T05:28:42;15.40;99.90
13896;DHT22;7018;50.838;4.226;2022-09-09T05:31:10;15.40;99.90
13896;DHT22;7018;50.838;4.226;2022-09-09T05:33:42;15.40;99.90
13896;DHT22;7018;50.838;4.226;2022-09-09T05:36:11;15.50;99.90
13896;DHT22;7018;50.838;4.226;2022-09-09T05:38:41;15.50;99.90
13896;DHT22;7018;50.838;4.226;2022-09-09T05:41:09;15.50;99.90
13896;DHT22;7018;50.838;4.226;2022-09-09T05:43:38;15.50;99.90
13896;DHT22;7018;50.838;4.226;2022-09-09T05:46:11;15.60;99.90
13896;DHT22;7018;50.838;4.226;2022-09-09T05:48:40;15.50;99.90
13896;DHT22;7018;50.838;4.226;2022-09-09T05:51:13;15.50;99.90
13896;DHT22;7018;50.838;4.226;2022-09-09T05:53:42;15.40;99.90
13896;DHT22;7018;50.838;4.226;2022-09-09T05:56:20;15.40;99.90
13896;DHT22;7018;50.838;4.226;2022-09-09T05:58:49;15.40;99.90
13896;DHT22;7018;50.838;4.226;2022-09-09T06:01:19;15.40;99.90
13896;DHT22;7018;50.838;4.226;2022-09-09T06:03:47;15.40;99.90
13896;DHT22;7018;50.838;4.226;2022-09-09T06:06:20;15.50;99.90
13896;DHT22;7018;50.838;4.226;2022-09-09T06:08:51;15.60;99.90
13896;DHT22;7018;50.838;4.226;2022-09-09T06:11:23;15.70;99.90
13896;DHT22;7018;50.838;4.226;2022-09-09T06:13:51;15.70;99.90
13896;DHT22;7018;50.838;4.226;2022-09-09T06:16:25;15.70;99.90
13896;DHT22;7018;50.838;4.226;2022-09-09T06:18:56;15.60;99.90
13896;DHT22;7018;50.838;4.226;2022-09-09T06:23:53;15.70;99.90
13896;DHT22;7018;50.838;4.226;2022-09-09T06:26:24;15.70;99.90
13896;DHT22;7018;50.838;4.226;2022-09-09T06:28:53;15.70;99.90
13896;DHT22;7018;50.838;4.226;2022-09-09T06:31:22;15.70;99.90
13896;DHT22;7018;50.838;4.226;2022-09-09T06:33:53;15.80;99.90
13896;DHT22;7018;50.838;4.226;2022-09-09T06:36:27;15.80;99.90
13896;DHT22;7018;50.838;4.226;2022-09-09T06:38:54;15.90;99.90
13896;DHT22;7018;50.838;4.226;2022-09-09T06:41:24;15.90;99.90
13896;DHT22;7018;50.838;4.226;2022-09-09T06:43:53;16.00;99.90
13896;DHT22;7018;50.838;4.226;2022-09-09T06:46:22;16.10;99.90
13896;DHT22;7018;50.838;4.226;2022-09-09T06:48:49;16.20;99.90
13896;DHT22;7018;50.838;4.226;2022-09-09T06:51:19;16.30;99.90
13896;DHT22;7018;50.838;4.226;2022-09-09T06:53:52;16.40;99.90
13896;DHT22;7018;50.838;4.226;2022-09-09T06:56:26;16.50;99.90
13896;DHT22;7018;50.838;4.226;2022-09-09T06:58:56;16.60;99.90
13896;DHT22;7018;50.838;4.226;2022-09-09T07:01:27;16.70;99.90
13896;DHT22;7018;50.838;4.226;2022-09-09T07:03:57;16.80;99.90
13896;DHT22;7018;50.838;4.226;2022-09-09T07:06:30;16.80;99.90
13896;DHT22;7018;50.838;4.226;2022-09-09T07:08:59;16.80;99.90
13896;DHT22;7018;50.838;4.226;2022-09-09T07:11:29;16.80;99.90
13896;DHT22;7018;50.838;4.226;2022-09-09T07:13:57;16.90;99.90
13896;DHT22;7018;50.838;4.226;2022-09-09T07:16:26;16.80;99.90
13896;DHT22;7018;50.838;4.226;2022-09-09T07:19:00;16.90;99.90
13896;DHT22;7018;50.838;4.226;2022-09-09T07:21:28;16.90;99.90
13896;DHT22;7018;50.838;4.226;2022-09-09T07:23:56;16.90;99.90
13896;DHT22;7018;50.838;4.226;2022-09-09T07:26:27;17.10;99.90
13896;DHT22;7018;50.838;4.226;2022-09-09T07:28:54;17.10;99.90
13896;DHT22;7018;50.838;4.226;2022-09-09T07:31:29;17.10;99.90
13896;DHT22;7018;50.838;4.226;2022-09-09T07:33:59;16.90;99.90
13896;DHT22;7018;50.838;4.226;2022-09-09T07:36:32;16.70;99.90
13896;DHT22;7018;50.838;4.226;2022-09-09T07:39:03;16.60;99.90
13896;DHT22;7018;50.838;4.226;2022-09-09T07:41:35;16.40;99.90
13896;DHT22;7018;50.838;4.226;2022-09-09T07:44:07;16.50;99.90
13896;DHT22;7018;50.838;4.226;2022-09-09T07:46:36;16.50;99.90
13896;DHT22;7018;50.838;4.226;2022-09-09T07:49:03;16.60;99.90
13896;DHT22;7018;50.838;4.226;2022-09-09T07:51:35;16.60;99.90
13896;DHT22;7018;50.838;4.226;2022-09-09T07:54:06;16.80;99.90
13896;DHT22;7018;50.838;4.226;2022-09-09T07:56:33;16.90;99.90
13896;DHT22;7018;50.838;4.226;2022-09-09T07:59:01;17.00;99.90
13896;DHT22;7018;50.838;4.226;2022-09-09T08:01:33;17.00;99.90
13896;DHT22;7018;50.838;4.226;2022-09-09T08:04:06;17.00;99.90
13896;DHT22;7018;50.838;4.226;2022-09-09T08:06:37;17.10;99.90
13896;DHT22;7018;50.838;4.226;2022-09-09T08:09:05;17.20;99.90
13896;DHT22;7018;50.838;4.226;2022-09-09T08:11:33;17.20;99.90
13896;DHT22;7018;50.838;4.226;2022-09-09T08:14:04;17.20;99.90
13896;DHT22;7018;50.838;4.226;2022-09-09T08:16:34;17.10;99.90
13896;DHT22;7018;50.838;4.226;2022-09-09T08:19:03;17.10;99.90
13896;DHT22;7018;50.838;4.226;2022-09-09T08:21:32;17.00;99.90
13896;DHT22;7018;50.838;4.226;2022-09-09T08:24:01;17.00;99.90
13896;DHT22;7018;50.838;4.226;2022-09-09T08:26:31;17.00;99.90
13896;DHT22;7018;50.838;4.226;2022-09-09T08:28:59;17.00;99.90
13896;DHT22;7018;50.838;4.226;2022-09-09T08:31:33;16.90;99.90
13896;DHT22;7018;50.838;4.226;2022-09-09T08:34:01;17.00;99.90
13896;DHT22;7018;50.838;4.226;2022-09-09T08:36:33;16.90;99.90
13896;DHT22;7018;50.838;4.226;2022-09-09T08:39:01;16.90;99.90
13896;DHT22;7018;50.838;4.226;2022-09-09T08:45:09;16.70;99.90
13896;DHT22;7018;50.838;4.226;2022-09-09T08:48:10;16.60;99.90
13896;DHT22;7018;50.838;4.226;2022-09-09T08:50:41;16.70;99.90
13896;DHT22;7018;50.838;4.226;2022-09-09T08:53:22;16.60;99.90
13896;DHT22;7018;50.838;4.226;2022-09-09T08:55:59;16.70;99.90
13896;DHT22;7018;50.838;4.226;2022-09-09T08:58:33;16.60;99.90
13896;DHT22;7018;50.838;4.226;2022-09-09T09:09:14;16.50;99.90
13896;DHT22;7018;50.838;4.226;2022-09-09T09:12:20;16.50;99.90
13896;DHT22;7018;50.838;4.226;2022-09-09T09:14:49;16.60;99.90
13896;DHT22;7018;50.838;4.226;2022-09-09T09:17:19;16.60;99.90
13896;DHT22;7018;50.838;4.226;2022-09-09T09:19:48;16.60;99.90
13896;DHT22;7018;50.838;4.226;2022-09-09T09:22:39;16.50;99.90
13896;DHT22;7018;50.838;4.226;2022-09-09T09:30:20;16.50;99.90
13896;DHT22;7018;50.838;4.226;2022-09-09T09:32:58;16.50;99.90
13896;DHT22;7018;50.838;4.226;2022-09-09T09:35:26;16.40;99.90
13896;DHT22;7018;50.838;4.226;2022-09-09T09:37:53;16.50;99.90
13896;DHT22;7018;50.838;4.226;2022-09-09T09:40:49;16.60;99.90
13896;DHT22;7018;50.838;4.226;2022-09-09T09:43:25;16.60;99.90
13896;DHT22;7018;50.838;4.226;2022-09-09T09:45:53;16.60;99.90
13896;DHT22;7018;50.838;4.226;2022-09-09T09:48:32;16.70;99.90
13896;DHT22;7018;50.838;4.226;2022-09-09T09:51:09;16.60;99.90
13896;DHT22;7018;50.838;4.226;2022-09-09T09:53:38;16.60;99.90
13896;DHT22;7018;50.838;4.226;2022-09-09T09:56:10;16.70;99.90
13896;DHT22;7018;50.838;4.226;2022-09-09T10:01:27;16.60;99.90
13896;DHT22;7018;50.838;4.226;2022-09-09T10:03:58;16.70;99.90
13896;DHT22;7018;50.838;4.226;2022-09-09T10:06:36;16.80;99.90
13896;DHT22;7018;50.838;4.226;2022-09-09T10:09:28;17.00;99.90
13896;DHT22;7018;50.838;4.226;2022-09-09T10:17:29;17.00;99.90
13896;DHT22;7018;50.838;4.226;2022-09-09T10:20:50;17.10;99.90
13896;DHT22;7018;50.838;4.226;2022-09-09T10:32:06;17.70;99.90
13896;DHT22;7018;50.838;4.226;2022-09-09T10:40:32;18.60;99.90
13896;DHT22;7018;50.838;4.226;2022-09-09T10:49:24;18.70;99.90
13896;DHT22;7018;50.838;4.226;2022-09-09T10:55:00;18.80;99.90
13896;DHT22;7018;50.838;4.226;2022-09-09T10:57:44;18.80;99.90
13896;DHT22;7018;50.838;4.226;2022-09-09T11:03:05;18.50;99.90
13896;DHT22;7018;50.838;4.226;2022-09-09T11:05:43;18.50;99.90
13896;DHT22;7018;50.838;4.226;2022-09-09T11:08:21;18.50;99.90
13896;DHT22;7018;50.838;4.226;2022-09-09T11:16:40;18.40;99.90
13896;DHT22;7018;50.838;4.226;2022-09-09T11:19:34;18.50;99.90
13896;DHT22;7018;50.838;4.226;2022-09-09T11:22:15;18.50;99.90
13896;DHT22;7018;50.838;4.226;2022-09-09T11:30:22;18.50;99.90
13896;DHT22;7018;50.838;4.226;2022-09-09T11:33:36;18.50;99.90
13896;DHT22;7018;50.838;4.226;2022-09-09T11:41:35;18.40;99.90
13896;DHT22;7018;50.838;4.226;2022-09-09T11:44:12;18.50;99.90
13896;DHT22;7018;50.838;4.226;2022-09-09T11:46:41;18.50;99.90
13896;DHT22;7018;50.838;4.226;2022-09-09T11:49:44;18.40;99.90
13896;DHT22;7018;50.838;4.226;2022-09-09T11:52:35;18.50;99.90
13896;DHT22;7018;50.838;4.226;2022-09-09T11:55:24;18.40;99.90
13896;DHT22;7018;50.838;4.226;2022-09-09T11:58:04;18.40;99.90
13896;DHT22;7018;50.838;4.226;2022-09-09T12:00:40;18.20;99.90
13896;DHT22;7018;50.838;4.226;2022-09-09T12:08:43;18.20;99.90
13896;DHT22;7018;50.838;4.226;2022-09-09T12:11:11;18.20;99.90
13896;DHT22;7018;50.838;4.226;2022-09-09T12:13:38;18.10;99.90
13896;DHT22;7018;50.838;4.226;2022-09-09T12:16:05;18.00;99.90
13896;DHT22;7018;50.838;4.226;2022-09-09T12:19:21;18.00;99.90
13896;DHT22;7018;50.838;4.226;2022-09-09T12:21:58;18.10;99.90
13896;DHT22;7018;50.838;4.226;2022-09-09T12:24:35;18.20;99.90
13896;DHT22;7018;50.838;4.226;2022-09-09T12:27:28;18.30;99.90
13896;DHT22;7018;50.838;4.226;2022-09-09T12:30:28;18.50;99.90
13896;DHT22;7018;50.838;4.226;2022-09-09T12:33:11;18.70;99.90
13896;DHT22;7018;50.838;4.226;2022-09-09T12:35:42;18.80;99.90
13896;DHT22;7018;50.838;4.226;2022-09-09T12:38:20;18.90;99.90
13896;DHT22;7018;50.838;4.226;2022-09-09T12:40:57;19.00;99.90
13896;DHT22;7018;50.838;4.226;2022-09-09T12:43:25;19.00;99.90
13896;DHT22;7018;50.838;4.226;2022-09-09T12:45:57;19.00;99.90
13896;DHT22;7018;50.838;4.226;2022-09-09T12:48:37;19.00;99.90
13896;DHT22;7018;50.838;4.226;2022-09-09T12:51:16;19.00;99.90
13896;DHT22;7018;50.838;4.226;2022-09-09T12:53:45;19.00;99.90
13896;DHT22;7018;50.838;4.226;2022-09-09T12:56:29;19.00;99.90
13896;DHT22;7018;50.838;4.226;2022-09-09T12:58:58;19.00;99.90
13896;DHT22;7018;50.838;4.226;2022-09-09T13:01:31;19.10;99.90
13896;DHT22;7018;50.838;4.226;2022-09-09T13:03:59;19.20;99.90
13896;DHT22;7018;50.838;4.226;2022-09-09T13:06:31;19.30;99.90
13896;DHT22;7018;50.838;4.226;2022-09-09T13:09:01;19.50;99.90
13896;DHT22;7018;50.838;4.226;2022-09-09T13:11:50;19.60;99.90
13896;DHT22;7018;50.838;4.226;2022-09-09T13:14:26;19.40;99.90
13896;DHT22;7018;50.838;4.226;2022-09-09T13:16:59;19.50;99.90
13896;DHT22;7018;50.838;4.226;2022-09-09T13:19:31;19.50;99.90
13896;DHT22;7018;50.838;4.226;2022-09-09T13:21:59;19.40;99.90
13896;DHT22;7018;50.838;4.226;2022-09-09T13:24:28;19.50;99.90
13896;DHT22;7018;50.838;4.226;2022-09-09T13:27:25;19.60;99.90
13896;DHT22;7018;50.838;4.226;2022-09-09T13:29:52;19.70;99.90
13896;DHT22;7018;50.838;4.226;2022-09-09T13:32:24;19.80;99.90
13896;DHT22;7018;50.838;4.226;2022-09-09T13:34:58;19.80;99.90
13896;DHT22;7018;50.838;4.226;2022-09-09T13:37:37;19.90;99.90
13896;DHT22;7018;50.838;4.226;2022-09-09T13:40:06;20.10;99.90
13896;DHT22;7018;50.838;4.226;2022-09-09T13:42:38;20.30;99.90
13896;DHT22;7018;50.838;4.226;2022-09-09T13:45:19;20.40;99.90
13896;DHT22;7018;50.838;4.226;2022-09-09T13:47:49;20.20;99.90
13896;DHT22;7018;50.838;4.226;2022-09-09T13:50:26;20.10;99.90
13896;DHT22;7018;50.838;4.226;2022-09-09T13:52:58;20.00;99.90
13896;DHT22;7018;50.838;4.226;2022-09-09T13:55:27;20.00;99.90
13896;DHT22;7018;50.838;4.226;2022-09-09T13:58:02;20.10;99.90
13896;DHT22;7018;50.838;4.226;2022-09-09T14:00:32;20.20;99.90
13896;DHT22;7018;50.838;4.226;2022-09-09T14:02:59;20.20;99.90
13896;DHT22;7018;50.838;4.226;2022-09-09T14:05:33;20.20;99.90
13896;DHT22;7018;50.838;4.226;2022-09-09T14:08:00;20.30;99.90
13896;DHT22;7018;50.838;4.226;2022-09-09T14:10:29;20.30;99.90
13896;DHT22;7018;50.838;4.226;2022-09-09T14:12:56;20.20;99.90
13896;DHT22;7018;50.838;4.226;2022-09-09T14:15:24;20.20;99.90
13896;DHT22;7018;50.838;4.226;2022-09-09T14:17:51;20.20;99.90
13896;DHT22;7018;50.838;4.226;2022-09-09T14:20:18;20.10;99.90
13896;DHT22;7018;50.838;4.226;2022-09-09T14:22:46;20.00;99.90
13896;DHT22;7018;50.838;4.226;2022-09-09T14:25:14;19.90;99.90
13896;DHT22;7018;50.838;4.226;2022-09-09T14:27:41;20.00;99.90
13896;DHT22;7018;50.838;4.226;2022-09-09T14:30:09;20.20;99.90
13896;DHT22;7018;50.838;4.226;2022-09-09T14:32:37;20.40;99.90
13896;DHT22;7018;50.838;4.226;2022-09-09T14:35:04;20.40;99.90
13896;DHT22;7018;50.838;4.226;2022-09-09T14:37:31;20.40;99.90
13896;DHT22;7018;50.838;4.226;2022-09-09T14:39:58;20.40;99.90
13896;DHT22;7018;50.838;4.226;2022-09-09T14:42:26;20.50;99.90
13896;DHT22;7018;50.838;4.226;2022-09-09T14:44:53;20.50;99.90
13896;DHT22;7018;50.838;4.226;2022-09-09T14:47:20;20.50;99.90
13896;DHT22;7018;50.838;4.226;2022-09-09T14:49:47;20.50;99.90
13896;DHT22;7018;50.838;4.226;2022-09-09T14:52:16;20.60;99.90
13896;DHT22;7018;50.838;4.226;2022-09-09T14:54:44;20.50;99.90
13896;DHT22;7018;50.838;4.226;2022-09-09T14:57:11;20.50;99.90
13896;DHT22;7018;50.838;4.226;2022-09-09T14:59:38;20.50;99.90
13896;DHT22;7018;50.838;4.226;2022-09-09T15:02:07;20.50;99.90
13896;DHT22;7018;50.838;4.226;2022-09-09T15:04:35;20.60;99.90
13896;DHT22;7018;50.838;4.226;2022-09-09T15:07:02;20.50;99.90
13896;DHT22;7018;50.838;4.226;2022-09-09T15:09:29;20.40;99.90
13896;DHT22;7018;50.838;4.226;2022-09-09T15:11:57;20.50;99.90
13896;DHT22;7018;50.838;4.226;2022-09-09T15:14:24;20.40;99.90
13896;DHT22;7018;50.838;4.226;2022-09-09T15:16:52;20.40;99.90
13896;DHT22;7018;50.838;4.226;2022-09-09T15:19:19;20.30;99.90
13896;DHT22;7018;50.838;4.226;2022-09-09T15:21:46;20.30;99.90
13896;DHT22;7018;50.838;4.226;2022-09-09T15:24:14;20.20;99.90
13896;DHT22;7018;50.838;4.226;2022-09-09T15:26:43;20.10;99.90
13896;DHT22;7018;50.838;4.226;2022-09-09T15:29:10;19.80;99.90
13896;DHT22;7018;50.838;4.226;2022-09-09T15:31:37;19.80;99.90
13896;DHT22;7018;50.838;4.226;2022-09-09T15:34:06;19.80;99.90
13896;DHT22;7018;50.838;4.226;2022-09-09T15:36:38;19.90;99.90
13896;DHT22;7018;50.838;4.226;2022-09-09T15:39:10;20.00;99.90
13896;DHT22;7018;50.838;4.226;2022-09-09T15:41:39;20.20;99.90
13896;DHT22;7018;50.838;4.226;2022-09-09T15:44:07;20.20;99.90
13896;DHT22;7018;50.838;4.226;2022-09-09T15:46:36;20.20;99.90
13896;DHT22;7018;50.838;4.226;2022-09-09T15:49:15;20.10;99.90
13896;DHT22;7018;50.838;4.226;2022-09-09T15:51:45;20.00;99.90
13896;DHT22;7018;50.838;4.226;2022-09-09T15:54:15;20.10;99.90
13896;DHT22;7018;50.838;4.226;2022-09-09T15:56:47;20.00;99.90
13896;DHT22;7018;50.838;4.226;2022-09-09T15:59:16;20.00;99.90
13896;DHT22;7018;50.838;4.226;2022-09-09T16:01:44;19.90;99.90
13896;DHT22;7018;50.838;4.226;2022-09-09T16:04:11;19.80;99.90
13896;DHT22;7018;50.838;4.226;2022-09-09T16:06:38;19.70;99.90
13896;DHT22;7018;50.838;4.226;2022-09-09T16:09:06;19.60;99.90
13896;DHT22;7018;50.838;4.226;2022-09-09T16:11:36;19.50;99.90
13896;DHT22;7018;50.838;4.226;2022-09-09T16:14:04;19.50;99.90
13896;DHT22;7018;50.838;4.226;2022-09-09T16:16:33;19.40;99.90
13896;DHT22;7018;50.838;4.226;2022-09-09T16:19:10;19.10;99.90
13896;DHT22;7018;50.838;4.226;2022-09-09T16:21:41;18.90;99.90
13896;DHT22;7018;50.838;4.226;2022-09-09T16:24:12;18.80;99.90
13896;DHT22;7018;50.838;4.226;2022-09-09T16:26:42;18.80;99.90
13896;DHT22;7018;50.838;4.226;2022-09-09T16:29:13;18.80;99.90
13896;DHT22;7018;50.838;4.226;2022-09-09T16:31:41;18.80;99.90
13896;DHT22;7018;50.838;4.226;2022-09-09T16:34:09;18.80;99.90
13896;DHT22;7018;50.838;4.226;2022-09-09T16:36:38;18.80;99.90
13896;DHT22;7018;50.838;4.226;2022-09-09T16:39:10;18.80;99.90
13896;DHT22;7018;50.838;4.226;2022-09-09T16:41:39;18.90;99.90
13896;DHT22;7018;50.838;4.226;2022-09-09T16:44:08;19.00;99.90
13896;DHT22;7018;50.838;4.226;2022-09-09T16:46:38;19.10;99.90
13896;DHT22;7018;50.838;4.226;2022-09-09T16:49:07;19.20;99.90
13896;DHT22;7018;50.838;4.226;2022-09-09T16:51:40;19.10;99.90
13896;DHT22;7018;50.838;4.226;2022-09-09T16:54:09;19.20;99.90
13896;DHT22;7018;50.838;4.226;2022-09-09T16:56:38;19.20;99.90
13896;DHT22;7018;50.838;4.226;2022-09-09T16:59:10;19.10;99.90
13896;DHT22;7018;50.838;4.226;2022-09-09T17:01:38;19.00;99.90
13896;DHT22;7018;50.838;4.226;2022-09-09T17:04:10;19.00;99.90
13896;DHT22;7018;50.838;4.226;2022-09-09T17:06:37;18.90;99.90
13896;DHT22;7018;50.838;4.226;2022-09-09T17:09:08;18.90;99.90
13896;DHT22;7018;50.838;4.226;2022-09-09T17:11:36;18.70;99.90
13896;DHT22;7018;50.838;4.226;2022-09-09T17:14:04;18.60;99.90
13896;DHT22;7018;50.838;4.226;2022-09-09T17:16:32;18.40;99.90
13896;DHT22;7018;50.838;4.226;2022-09-09T17:19:03;18.40;99.90
13896;DHT22;7018;50.838;4.226;2022-09-09T17:21:32;18.40;99.90
13896;DHT22;7018;50.838;4.226;2022-09-09T17:23:59;18.50;99.90
13896;DHT22;7018;50.838;4.226;2022-09-09T17:26:30;18.50;99.90
13896;DHT22;7018;50.838;4.226;2022-09-09T17:28:58;18.30;99.90
13896;DHT22;7018;50.838;4.226;2022-09-09T17:31:27;18.30;99.90
13896;DHT22;7018;50.838;4.226;2022-09-09T17:33:55;18.20;99.90
13896;DHT22;7018;50.838;4.226;2022-09-09T17:36:30;18.20;99.90
13896;DHT22;7018;50.838;4.226;2022-09-09T17:38:58;18.10;99.90
13896;DHT22;7018;50.838;4.226;2022-09-09T17:41:31;18.10;99.90
13896;DHT22;7018;50.838;4.226;2022-09-09T17:44:00;18.00;99.90
13896;DHT22;7018;50.838;4.226;2022-09-09T17:46:33;17.90;99.90
13896;DHT22;7018;50.838;4.226;2022-09-09T17:49:05;17.80;99.90
13896;DHT22;7018;50.838;4.226;2022-09-09T17:51:34;17.80;99.90
13896;DHT22;7018;50.838;4.226;2022-09-09T17:54:16;17.70;99.90
13896;DHT22;7018;50.838;4.226;2022-09-09T17:56:45;17.70;99.90
13896;DHT22;7018;50.838;4.226;2022-09-09T17:59:14;17.50;99.90
13896;DHT22;7018;50.838;4.226;2022-09-09T18:01:44;17.50;99.90